Oakhurst, New Jersey
Current Conditions -  °F | °C
As of 9:15 AM on Friday 24 Oct 2014 (Local Time) from KBLM Reporting Station
Overcast Overcast  
Wind Chill: 54°   Ceiling: 2800
Heat Index: 54°   Visibility: 10mi
Dew Point: 43°   Wind: 13mph
Humidity: 67%   Direction: 330°NNW
Pressure: 29.82"   Gusts: NA
Location:  40.27°N, 74.02°W
Report Text: KBLM 241315Z AUTO 33011KT 10SM OVC028 12/06 A2982 RMK AO1
Loading
Personal Weather Stations






























Interactive Weather Map
Tropical Storm Tracking
New forecast layout! Learn more

10-Day Weather Forecast

Advertisements
Track Severe Weather on mobile